Springfield, OR (97477)

1:41 PM PDT on October 25, 2014 (GMT -0700)
14th and Main | Change Station
CLOSE
Current Station
Personal Weather Station
Location: Springfield, OR
Elevation: 443 ft
Nearby Weather Stations
Active Advisory: High Wind Warning

Elev 443 ft 44.05 °N, 123.00 °W | Updated 6 minutes ago

Mostly Cloudy
Mostly Cloudy
63.0 °F
Feels Like 63.0 °F
N
19.0
Wind Variable Wind from SSE
Gusts 35.8 mph

Today
High -- | Low -- °F
--% Chance of Precip.
Yesterday
High -- | Low -- °F
Precip. -- in
7:39 AM 6:11 PM
Waxing Crescent, 4% visible
Pressure 29.48 in
Visibility 10.0 miles
Clouds Scattered Clouds 2500 ft
Mostly Cloudy 4000 ft
Overcast 4800 ft
Dew Point 53 °F
Humidity 71%
Rainfall 0.11 in
Snow Depth Not available.
UV 1 out of 12
Pollen .30 out of 12
PM2.5 Good
Flu Activity Sporadic
SPECI KEUG 252019Z 19016G25KT 10SM -RA SCT025 BKN040 OVC048 16/12 A2948 RMK AO2 P0000 T01560122

More Conditions Fewer Conditions

Pressure 29.48 in
Visibility 10.0 miles
Clouds Scattered Clouds 2500 ft
Mostly Cloudy 4000 ft
Overcast 4800 ft
Dew Point 53 °F
Humidity 71%
Rainfall 0.11 in
Snow Depth Not available.
UV 1 out of 12
Pollen .30 out of 12
PM2.5 Good
Flu Activity Sporadic
SPECI KEUG 252019Z 19016G25KT 10SM -RA SCT025 BKN040 OVC048 16/12 A2948 RMK AO2 P0000 T01560122

More Conditions Fewer Conditions

10-Day Weather Forecast

Almanac

Astronomy

Oct. 25, 2014 Rise Set
Actual Time 7:39 AM PDT 6:11 PM PDT
Civil Twilight 7:09 AM PDT 6:41 PM PDT
Nautical Twilight 6:36 AM PDT 7:15 PM PDT
Astronomical Twilight 6:02 AM PDT 7:48 PM PDT
Moon 9:26 AM PDT 7:36 PM PDT
Length of Visible Light 11h 31m
Length of Day
10h 32m
Tomorrow will be 2m 48s shorter.
Waxing Crescent, 4% of the Moon is Illuminated
Today
Waxing Crescent
Oct 30
First Quarter
Nov 6
Full
Nov 14
Last Quarter
Nov 22
New

Today's Extremes

State Highs State Lows

Community

WunderPhotos

Upload Photos

1,764,989 photos uploaded!

Nearby

Air Quality

  Air Quality AQ Index Pollutant
Yesterday Moderate
PM2.5
Current Good
PM2.5
Saturday Good
PM2.5
Sunday Good
PM2.5

Snow Depth

Station Depth Elevation
Holland Meadows 0 in 4900 ft
Jump Off Joe 0 in 3500 ft
Roaring River 0 in 4900 ft
Railroad Overpass 0 in 2750 ft
Little Meadows 0 in 4000 ft

Earthquake Activity

City Distance Mag. Time & Date
No recent earthquake activity has been reported nearby.
Minimum magnitude displayed is 2.5.

Coastal Water Temperatures

Place Temperature
No Stations Reporting

Nearby Weather Stations